sensor_id;sensor_type;location;lat;lon;timestamp;pressure;altitude;pressure_sealevel;temperature;humidity
21824;BME280;11074;48.596;9.238;2022-10-31T00:01:25;98720.94;;;14.45;84.72
21824;BME280;11074;48.596;9.238;2022-10-31T00:03:52;98722.81;;;14.44;84.72
21824;BME280;11074;48.596;9.238;2022-10-31T00:06:18;98723.56;;;14.35;84.18
21824;BME280;11074;48.596;9.238;2022-10-31T00:08:46;98737.03;;;14.40;84.98
21824;BME280;11074;48.596;9.238;2022-10-31T00:11:12;98734.91;;;14.37;83.50
21824;BME280;11074;48.596;9.238;2022-10-31T00:13:38;98734.09;;;14.36;84.69
21824;BME280;11074;48.596;9.238;2022-10-31T00:16:05;98729.22;;;14.33;84.86
21824;BME280;11074;48.596;9.238;2022-10-31T00:18:30;98729.72;;;14.30;84.07
21824;BME280;11074;48.596;9.238;2022-10-31T00:21:03;98715.72;;;14.28;84.84
21824;BME280;11074;48.596;9.238;2022-10-31T00:23:29;98726.19;;;14.30;85.15
21824;BME280;11074;48.596;9.238;2022-10-31T00:26:01;98724.81;;;14.22;83.33
21824;BME280;11074;48.596;9.238;2022-10-31T00:28:27;98722.13;;;14.17;85.09
21824;BME280;11074;48.596;9.238;2022-10-31T00:30:53;98717.25;;;14.14;84.44
21824;BME280;11074;48.596;9.238;2022-10-31T00:33:18;98724.25;;;14.15;85.85
21824;BME280;11074;48.596;9.238;2022-10-31T00:35:50;98735.56;;;14.17;85.63
21824;BME280;11074;48.596;9.238;2022-10-31T00:38:16;98723.69;;;14.13;85.31
21824;BME280;11074;48.596;9.238;2022-10-31T00:40:41;98722.34;;;14.11;85.37
21824;BME280;11074;48.596;9.238;2022-10-31T00:43:07;98723.16;;;14.11;85.11
21824;BME280;11074;48.596;9.238;2022-10-31T00:45:33;98719.91;;;14.09;85.10
21824;BME280;11074;48.596;9.238;2022-10-31T00:47:58;98724.47;;;14.09;85.50
21824;BME280;11074;48.596;9.238;2022-10-31T00:50:24;98729.34;;;14.12;85.83
21824;BME280;11074;48.596;9.238;2022-10-31T00:52:50;98722.63;;;14.09;85.13
21824;BME280;11074;48.596;9.238;2022-10-31T00:55:15;98731.50;;;14.10;85.17
21824;BME280;11074;48.596;9.238;2022-10-31T00:57:41;98728.81;;;14.10;85.43
21824;BME280;11074;48.596;9.238;2022-10-31T01:00:08;98721.50;;;14.05;85.64
21824;BME280;11074;48.596;9.238;2022-10-31T01:02:33;98719.63;;;14.06;85.37
21824;BME280;11074;48.596;9.238;2022-10-31T01:04:59;98726.63;;;14.07;85.26
21824;BME280;11074;48.596;9.238;2022-10-31T01:07:25;98718.25;;;14.03;84.57
21824;BME280;11074;48.596;9.238;2022-10-31T01:09:50;98719.88;;;13.99;85.05
21824;BME280;11074;48.596;9.238;2022-10-31T01:12:16;98718.78;;;14.00;85.52
21824;BME280;11074;48.596;9.238;2022-10-31T01:14:45;98717.44;;;13.97;84.58
21824;BME280;11074;48.596;9.238;2022-10-31T01:17:12;98713.69;;;13.98;85.40
21824;BME280;11074;48.596;9.238;2022-10-31T01:19:39;98718.50;;;13.96;84.70
21824;BME280;11074;48.596;9.238;2022-10-31T01:22:04;98725.75;;;13.96;84.75
21824;BME280;11074;48.596;9.238;2022-10-31T01:24:30;98717.94;;;13.94;84.97
21824;BME280;11074;48.596;9.238;2022-10-31T01:26:56;98718.72;;;13.90;84.49
21824;BME280;11074;48.596;9.238;2022-10-31T01:29:21;98716.03;;;13.90;84.90
21824;BME280;11074;48.596;9.238;2022-10-31T01:31:47;98716.31;;;13.88;84.18
21824;BME280;11074;48.596;9.238;2022-10-31T01:34:15;98710.63;;;13.85;84.56
21824;BME280;11074;48.596;9.238;2022-10-31T01:36:42;98713.59;;;13.83;84.59
21824;BME280;11074;48.596;9.238;2022-10-31T01:39:12;98715.47;;;13.83;85.22
21824;BME280;11074;48.596;9.238;2022-10-31T01:41:45;98710.59;;;13.80;85.24
21824;BME280;11074;48.596;9.238;2022-10-31T01:47:29;98716.25;;;13.78;85.35
21824;BME280;11074;48.596;9.238;2022-10-31T01:50:00;98714.88;;;13.76;85.93
21824;BME280;11074;48.596;9.238;2022-10-31T01:52:34;98711.63;;;13.74;85.09
21824;BME280;11074;48.596;9.238;2022-10-31T01:57:34;98703.78;;;13.62;84.43
21824;BME280;11074;48.596;9.238;2022-10-31T02:00:06;98706.16;;;13.59;85.64
21824;BME280;11074;48.596;9.238;2022-10-31T02:02:33;98712.06;;;13.56;86.07
21824;BME280;11074;48.596;9.238;2022-10-31T02:05:05;98706.41;;;13.57;86.20
21824;BME280;11074;48.596;9.238;2022-10-31T02:07:44;98706.97;;;13.59;86.18
21824;BME280;11074;48.596;9.238;2022-10-31T02:10:11;98713.38;;;13.53;86.46
21824;BME280;11074;48.596;9.238;2022-10-31T02:12:38;98711.19;;;13.50;86.36
21824;BME280;11074;48.596;9.238;2022-10-31T02:15:05;98711.47;;;13.49;86.46
21824;BME280;11074;48.596;9.238;2022-10-31T02:17:32;98708.78;;;13.49;86.12
21824;BME280;11074;48.596;9.238;2022-10-31T02:20:17;98706.94;;;13.54;86.38
21824;BME280;11074;48.596;9.238;2022-10-31T02:26:58;98704.00;;;13.56;85.57
21824;BME280;11074;48.596;9.238;2022-10-31T02:35:20;98706.59;;;13.46;85.73
21824;BME280;11074;48.596;9.238;2022-10-31T02:46:35;98706.03;;;13.39;86.56
21824;BME280;11074;48.596;9.238;2022-10-31T02:49:28;98697.41;;;13.36;86.87
21824;BME280;11074;48.596;9.238;2022-10-31T02:51:58;98697.66;;;13.35;86.24
21824;BME280;11074;48.596;9.238;2022-10-31T02:54:27;98703.28;;;13.33;85.84
21824;BME280;11074;48.596;9.238;2022-10-31T02:57:04;98707.09;;;13.38;85.78
21824;BME280;11074;48.596;9.238;2022-10-31T02:59:38;98700.84;;;13.32;84.20
21824;BME280;11074;48.596;9.238;2022-10-31T03:02:37;98708.63;;;13.33;84.83
21824;BME280;11074;48.596;9.238;2022-10-31T03:05:35;98705.38;;;13.26;84.00
21824;BME280;11074;48.596;9.238;2022-10-31T03:11:08;98709.06;;;13.20;84.62
21824;BME280;11074;48.596;9.238;2022-10-31T03:16:17;98701.47;;;13.12;83.54
21824;BME280;11074;48.596;9.238;2022-10-31T03:19:35;98700.94;;;13.10;84.42
21824;BME280;11074;48.596;9.238;2022-10-31T03:22:22;98695.03;;;13.08;84.84
21824;BME280;11074;48.596;9.238;2022-10-31T03:24:51;98695.75;;;13.04;83.04
21824;BME280;11074;48.596;9.238;2022-10-31T03:27:24;98693.56;;;13.01;83.13
21824;BME280;11074;48.596;9.238;2022-10-31T03:29:56;98691.34;;;12.93;83.96
21824;BME280;11074;48.596;9.238;2022-10-31T03:32:54;98696.25;;;13.01;85.24
21824;BME280;11074;48.596;9.238;2022-10-31T03:35:24;98687.31;;;12.90;83.63
21824;BME280;11074;48.596;9.238;2022-10-31T03:37:54;98703.59;;;12.84;83.21
21824;BME280;11074;48.596;9.238;2022-10-31T03:40:23;98706.78;;;12.81;84.10
21824;BME280;11074;48.596;9.238;2022-10-31T03:43:03;98700.09;;;12.83;84.50
21824;BME280;11074;48.596;9.238;2022-10-31T03:45:37;98701.13;;;12.77;84.00
21824;BME280;11074;48.596;9.238;2022-10-31T03:48:05;98706.53;;;12.82;85.35
21824;BME280;11074;48.596;9.238;2022-10-31T03:51:15;98701.19;;;12.82;85.29
21824;BME280;11074;48.596;9.238;2022-10-31T03:56:33;98695.31;;;12.85;85.40
21824;BME280;11074;48.596;9.238;2022-10-31T03:59:18;98698.00;;;12.85;85.72
21824;BME280;11074;48.596;9.238;2022-10-31T04:01:52;98698.00;;;12.85;84.74
21824;BME280;11074;48.596;9.238;2022-10-31T04:04:20;98688.00;;;12.81;84.84
21824;BME280;11074;48.596;9.238;2022-10-31T04:06:47;98692.31;;;12.82;84.84
21824;BME280;11074;48.596;9.238;2022-10-31T04:09:17;98694.72;;;12.83;85.06
21824;BME280;11074;48.596;9.238;2022-10-31T04:11:50;98697.41;;;12.83;84.80
21824;BME280;11074;48.596;9.238;2022-10-31T04:14:17;98685.81;;;12.77;84.77
21824;BME280;11074;48.596;9.238;2022-10-31T04:16:44;98695.00;;;12.82;86.16
21824;BME280;11074;48.596;9.238;2022-10-31T04:19:11;98687.19;;;12.80;86.24
21824;BME280;11074;48.596;9.238;2022-10-31T04:21:37;98690.41;;;12.77;84.90
21824;BME280;11074;48.596;9.238;2022-10-31T04:24:12;98687.13;;;12.75;84.51
21824;BME280;11074;48.596;9.238;2022-10-31T04:26:37;98690.34;;;12.72;84.19
21824;BME280;11074;48.596;9.238;2022-10-31T04:29:03;98697.59;;;12.71;84.63
21824;BME280;11074;48.596;9.238;2022-10-31T04:31:29;98688.72;;;12.71;83.54
21824;BME280;11074;48.596;9.238;2022-10-31T04:33:55;98695.91;;;12.65;84.26
21824;BME280;11074;48.596;9.238;2022-10-31T04:36:20;98688.31;;;12.57;84.97
21824;BME280;11074;48.596;9.238;2022-10-31T04:38:46;98683.66;;;12.48;85.20
21824;BME280;11074;48.596;9.238;2022-10-31T04:41:12;98682.84;;;12.47;84.97
21824;BME280;11074;48.596;9.238;2022-10-31T04:43:37;98682.00;;;12.47;84.83
21824;BME280;11074;48.596;9.238;2022-10-31T04:46:04;98677.16;;;12.44;84.72
21824;BME280;11074;48.596;9.238;2022-10-31T04:48:30;98680.38;;;12.46;85.79
21824;BME280;11074;48.596;9.238;2022-10-31T04:51:02;98672.97;;;12.53;86.52
21824;BME280;11074;48.596;9.238;2022-10-31T04:53:29;98684.16;;;12.45;86.71
21824;BME280;11074;48.596;9.238;2022-10-31T04:55:54;98676.59;;;12.42;88.17
21824;BME280;11074;48.596;9.238;2022-10-31T04:58:22;98675.13;;;12.29;88.29
21824;BME280;11074;48.596;9.238;2022-10-31T05:00:52;98674.09;;;12.35;88.38
21824;BME280;11074;48.596;9.238;2022-10-31T05:03:18;98662.88;;;12.38;88.24
21824;BME280;11074;48.596;9.238;2022-10-31T05:05:44;98658.31;;;12.39;88.35
21824;BME280;11074;48.596;9.238;2022-10-31T05:08:10;98664.13;;;12.31;88.07
21824;BME280;11074;48.596;9.238;2022-10-31T05:10:36;98667.38;;;12.33;89.03
21824;BME280;11074;48.596;9.238;2022-10-31T05:13:03;98673.38;;;12.40;88.82
21824;BME280;11074;48.596;9.238;2022-10-31T05:15:30;98667.47;;;12.43;87.34
21824;BME280;11074;48.596;9.238;2022-10-31T05:17:56;98660.50;;;12.42;85.69
21824;BME280;11074;48.596;9.238;2022-10-31T05:20:27;98657.34;;;12.45;85.77
21824;BME280;11074;48.596;9.238;2022-10-31T05:22:55;98656.75;;;12.43;86.23
21824;BME280;11074;48.596;9.238;2022-10-31T05:25:23;98656.50;;;12.44;87.36
21824;BME280;11074;48.596;9.238;2022-10-31T05:27:51;98655.69;;;12.44;87.51
21824;BME280;11074;48.596;9.238;2022-10-31T05:30:20;98655.09;;;12.37;87.17
21824;BME280;11074;48.596;9.238;2022-10-31T05:32:49;98648.38;;;12.34;87.73
21824;BME280;11074;48.596;9.238;2022-10-31T05:35:28;98651.03;;;12.34;87.91
21824;BME280;11074;48.596;9.238;2022-10-31T05:37:55;98643.25;;;12.33;86.32
21824;BME280;11074;48.596;9.238;2022-10-31T05:40:21;98647.88;;;12.37;85.67
21824;BME280;11074;48.596;9.238;2022-10-31T05:42:51;98641.59;;;12.27;84.75
21824;BME280;11074;48.596;9.238;2022-10-31T05:45:19;98643.72;;;12.30;84.42
21824;BME280;11074;48.596;9.238;2022-10-31T05:48:00;98635.34;;;12.21;84.40
21824;BME280;11074;48.596;9.238;2022-10-31T05:50:30;98636.56;;;12.13;84.92
21824;BME280;11074;48.596;9.238;2022-10-31T05:53:04;98640.50;;;12.06;85.10
21824;BME280;11074;48.596;9.238;2022-10-31T05:55:32;98643.19;;;12.06;84.36
21824;BME280;11074;48.596;9.238;2022-10-31T05:57:58;98639.91;;;11.99;84.17
21824;BME280;11074;48.596;9.238;2022-10-31T06:00:25;98641.00;;;12.03;84.13
21824;BME280;11074;48.596;9.238;2022-10-31T06:03:02;98640.28;;;12.07;84.45
21824;BME280;11074;48.596;9.238;2022-10-31T06:05:29;98636.56;;;12.13;85.58
21824;BME280;11074;48.596;9.238;2022-10-31T06:07:55;98642.75;;;12.14;83.40
21824;BME280;11074;48.596;9.238;2022-10-31T06:10:21;98650.50;;;12.10;83.58
21824;BME280;11074;48.596;9.238;2022-10-31T06:12:47;98649.19;;;12.13;83.54
21824;BME280;11074;48.596;9.238;2022-10-31T06:15:13;98648.50;;;12.01;84.90
21824;BME280;11074;48.596;9.238;2022-10-31T06:17:39;98647.44;;;12.02;84.52
21824;BME280;11074;48.596;9.238;2022-10-31T06:20:06;98651.00;;;12.07;84.49
21824;BME280;11074;48.596;9.238;2022-10-31T06:22:32;98648.88;;;12.09;84.09
21824;BME280;11074;48.596;9.238;2022-10-31T06:24:58;98643.19;;;12.06;86.16
21824;BME280;11074;48.596;9.238;2022-10-31T06:27:24;98649.03;;;12.03;87.29
21824;BME280;11074;48.596;9.238;2022-10-31T06:29:50;98653.91;;;12.06;87.37
21824;BME280;11074;48.596;9.238;2022-10-31T06:32:17;98644.94;;;11.95;85.93
21824;BME280;11074;48.596;9.238;2022-10-31T06:34:43;98656.25;;;11.97;86.94
21824;BME280;11074;48.596;9.238;2022-10-31T06:37:11;98653.28;;;11.99;87.98
21824;BME280;11074;48.596;9.238;2022-10-31T06:39:37;98651.16;;;12.01;87.71
21824;BME280;11074;48.596;9.238;2022-10-31T06:42:03;98659.22;;;12.01;87.59
21824;BME280;11074;48.596;9.238;2022-10-31T06:44:30;98656.59;;;12.06;87.68
21824;BME280;11074;48.596;9.238;2022-10-31T06:46:56;98655.81;;;12.05;88.72
21824;BME280;11074;48.596;9.238;2022-10-31T06:49:21;98645.81;;;12.01;88.60
21824;BME280;11074;48.596;9.238;2022-10-31T06:51:48;98648.75;;;11.99;88.58
21824;BME280;11074;48.596;9.238;2022-10-31T06:54:15;98643.41;;;11.99;87.71
21824;BME280;11074;48.596;9.238;2022-10-31T06:56:41;98649.75;;;11.93;88.17
21824;BME280;11074;48.596;9.238;2022-10-31T06:59:06;98649.34;;;11.85;88.45
21824;BME280;11074;48.596;9.238;2022-10-31T07:01:32;98648.88;;;11.88;89.06
21824;BME280;11074;48.596;9.238;2022-10-31T07:03:58;98645.94;;;11.89;88.32
21824;BME280;11074;48.596;9.238;2022-10-31T07:06:24;98649.28;;;11.80;88.88
21824;BME280;11074;48.596;9.238;2022-10-31T07:08:50;98652.66;;;11.70;90.26
21824;BME280;11074;48.596;9.238;2022-10-31T07:11:16;98649.28;;;11.80;89.65
21824;BME280;11074;48.596;9.238;2022-10-31T07:13:42;98651.09;;;11.74;90.09
21824;BME280;11074;48.596;9.238;2022-10-31T07:16:08;98649.34;;;11.85;89.96
21824;BME280;11074;48.596;9.238;2022-10-31T07:18:36;98647.00;;;11.88;89.21
21824;BME280;11074;48.596;9.238;2022-10-31T07:21:02;98651.66;;;11.98;89.03
21824;BME280;11074;48.596;9.238;2022-10-31T07:23:27;98648.97;;;11.98;88.61
21824;BME280;11074;48.596;9.238;2022-10-31T07:25:57;98648.50;;;12.01;89.73
21824;BME280;11074;48.596;9.238;2022-10-31T07:28:25;98643.13;;;12.01;89.72
21824;BME280;11074;48.596;9.238;2022-10-31T07:30:57;98643.19;;;12.06;89.60
21824;BME280;11074;48.596;9.238;2022-10-31T07:33:24;98645.16;;;12.10;89.85
21824;BME280;11074;48.596;9.238;2022-10-31T07:35:52;98646.19;;;12.09;89.53
21824;BME280;11074;48.596;9.238;2022-10-31T07:38:18;98641.38;;;12.11;88.49
21824;BME280;11074;48.596;9.238;2022-10-31T07:40:49;98644.94;;;12.17;88.79
21824;BME280;11074;48.596;9.238;2022-10-31T07:43:15;98642.25;;;12.17;89.36
21824;BME280;11074;48.596;9.238;2022-10-31T07:45:41;98643.13;;;12.23;89.80
21824;BME280;11074;48.596;9.238;2022-10-31T07:48:07;98648.44;;;12.18;89.77
21824;BME280;11074;48.596;9.238;2022-10-31T07:50:33;98647.44;;;12.24;89.95
21824;BME280;11074;48.596;9.238;2022-10-31T07:53:10;98645.88;;;12.28;90.04
21824;BME280;11074;48.596;9.238;2022-10-31T07:55:37;98640.50;;;12.28;89.98
21824;BME280;11074;48.596;9.238;2022-10-31T08:00:33;98639.00;;;12.37;90.27
21824;BME280;11074;48.596;9.238;2022-10-31T08:03:05;98637.97;;;12.43;90.20
21824;BME280;11074;48.596;9.238;2022-10-31T08:05:33;98634.81;;;12.46;90.01
21824;BME280;11074;48.596;9.238;2022-10-31T08:08:00;98638.06;;;12.48;90.16
21824;BME280;11074;48.596;9.238;2022-10-31T08:10:27;98632.97;;;12.51;90.04
21824;BME280;11074;48.596;9.238;2022-10-31T08:13:03;98641.38;;;12.60;89.98
21824;BME280;11074;48.596;9.238;2022-10-31T08:15:29;98642.25;;;12.65;90.01
21824;BME280;11074;48.596;9.238;2022-10-31T08:17:56;98634.22;;;12.65;90.28
21824;BME280;11074;48.596;9.238;2022-10-31T08:20:22;98638.25;;;12.68;89.25
21824;BME280;11074;48.596;9.238;2022-10-31T08:22:56;98641.53;;;12.75;89.65
21824;BME280;11074;48.596;9.238;2022-10-31T08:25:24;98630.06;;;12.80;89.53
21824;BME280;11074;48.596;9.238;2022-10-31T08:27:54;98628.28;;;12.90;89.68
21824;BME280;11074;48.596;9.238;2022-10-31T08:30:24;98627.22;;;12.96;89.51
21824;BME280;11074;48.596;9.238;2022-10-31T08:33:14;98626.47;;;13.01;89.02
21824;BME280;11074;48.596;9.238;2022-10-31T08:35:40;98622.19;;;13.05;88.75
21824;BME280;11074;48.596;9.238;2022-10-31T08:38:09;98617.72;;;13.10;89.05
21824;BME280;11074;48.596;9.238;2022-10-31T08:40:35;98620.97;;;13.17;89.51
21824;BME280;11074;48.596;9.238;2022-10-31T08:43:11;98623.16;;;13.20;88.96
21824;BME280;11074;48.596;9.238;2022-10-31T08:45:37;98610.00;;;13.19;88.45
21824;BME280;11074;48.596;9.238;2022-10-31T08:48:08;98623.19;;;13.25;89.03
21824;BME280;11074;48.596;9.238;2022-10-31T08:50:35;98623.50;;;13.29;88.62
21824;BME280;11074;48.596;9.238;2022-10-31T08:53:12;98614.13;;;13.31;88.69
21824;BME280;11074;48.596;9.238;2022-10-31T08:55:40;98608.44;;;13.28;89.11
21824;BME280;11074;48.596;9.238;2022-10-31T08:58:10;98615.75;;;13.32;89.19
21824;BME280;11074;48.596;9.238;2022-10-31T09:00:37;98606.88;;;13.32;88.90
21824;BME280;11074;48.596;9.238;2022-10-31T09:03:08;98617.09;;;13.35;89.00
21824;BME280;11074;48.596;9.238;2022-10-31T09:05:34;98605.00;;;13.32;89.31
21824;BME280;11074;48.596;9.238;2022-10-31T09:08:03;98608.22;;;13.34;89.35
21824;BME280;11074;48.596;9.238;2022-10-31T09:10:32;98612.03;;;13.39;88.91
21824;BME280;11074;48.596;9.238;2022-10-31T09:13:01;98610.72;;;13.46;88.79
21824;BME280;11074;48.596;9.238;2022-10-31T09:15:30;98614.25;;;13.52;88.12
21824;BME280;11074;48.596;9.238;2022-10-31T09:17:56;98606.44;;;13.50;88.51
21824;BME280;11074;48.596;9.238;2022-10-31T09:20:22;98601.09;;;13.55;88.11
21824;BME280;11074;48.596;9.238;2022-10-31T09:23:02;98605.97;;;13.63;88.31
21824;BME280;11074;48.596;9.238;2022-10-31T09:25:28;98589.84;;;13.63;88.72
21824;BME280;11074;48.596;9.238;2022-10-31T09:27:59;98595.00;;;13.70;87.84
21824;BME280;11074;48.596;9.238;2022-10-31T09:30:27;98589.91;;;13.73;88.12
21824;BME280;11074;48.596;9.238;2022-10-31T09:33:02;98585.88;;;13.76;88.32
21824;BME280;11074;48.596;9.238;2022-10-31T09:35:28;98589.16;;;13.83;87.53
21824;BME280;11074;48.596;9.238;2022-10-31T09:38:10;98590.75;;;13.84;87.73
21824;BME280;11074;48.596;9.238;2022-10-31T09:40:41;98591.34;;;13.91;86.99
21824;BME280;11074;48.596;9.238;2022-10-31T09:46:33;98578.47;;;14.03;86.38
21824;BME280;11074;48.596;9.238;2022-10-31T09:52:33;98583.88;;;14.13;85.87
21824;BME280;11074;48.596;9.238;2022-10-31T09:55:04;98573.16;;;14.23;86.54
21824;BME280;11074;48.596;9.238;2022-10-31T09:57:35;98575.38;;;14.31;86.27
21824;BME280;11074;48.596;9.238;2022-10-31T10:00:06;98579.13;;;14.40;84.97
21824;BME280;11074;48.596;9.238;2022-10-31T10:03:00;98562.47;;;14.48;84.77
21824;BME280;11074;48.596;9.238;2022-10-31T10:05:53;98577.03;;;14.63;84.58
21824;BME280;11074;48.596;9.238;2022-10-31T10:08:26;98571.91;;;14.61;84.76
21824;BME280;11074;48.596;9.238;2022-10-31T10:11:13;98568.13;;;14.62;85.54
21824;BME280;11074;48.596;9.238;2022-10-31T10:17:24;98561.41;;;14.80;84.36
21824;BME280;11074;48.596;9.238;2022-10-31T10:20:26;98558.19;;;14.88;84.51
21824;BME280;11074;48.596;9.238;2022-10-31T10:25:43;98558.72;;;15.00;83.86
21824;BME280;11074;48.596;9.238;2022-10-31T10:28:35;98555.75;;;15.06;84.19
21824;BME280;11074;48.596;9.238;2022-10-31T10:31:09;98554.94;;;15.16;83.54
21824;BME280;11074;48.596;9.238;2022-10-31T10:37:04;98551.16;;;15.27;82.11
21824;BME280;11074;48.596;9.238;2022-10-31T10:39:45;98546.00;;;15.31;81.97
21824;BME280;11074;48.596;9.238;2022-10-31T10:42:15;98546.00;;;15.36;82.16
21824;BME280;11074;48.596;9.238;2022-10-31T10:45:14;98537.63;;;15.42;81.71
21824;BME280;11074;48.596;9.238;2022-10-31T10:48:13;98531.97;;;15.54;81.02
21824;BME280;11074;48.596;9.238;2022-10-31T10:50:47;98524.69;;;15.54;82.70
21824;BME280;11074;48.596;9.238;2022-10-31T10:53:46;98519.81;;;15.61;81.09
21824;BME280;11074;48.596;9.238;2022-10-31T10:59:19;98514.66;;;15.65;81.29
21824;BME280;11074;48.596;9.238;2022-10-31T11:01:50;98504.41;;;15.72;80.70
21824;BME280;11074;48.596;9.238;2022-10-31T11:04:33;98501.66;;;15.82;79.98
21824;BME280;11074;48.596;9.238;2022-10-31T11:07:09;98502.41;;;15.93;79.85
21824;BME280;11074;48.596;9.238;2022-10-31T11:09:36;98500.47;;;16.03;80.07
21824;BME280;11074;48.596;9.238;2022-10-31T11:12:10;98482.34;;;16.14;78.97
21824;BME280;11074;48.596;9.238;2022-10-31T11:14:49;98484.41;;;16.27;79.02
21824;BME280;11074;48.596;9.238;2022-10-31T11:17:30;98472.19;;;16.34;79.08
21824;BME280;11074;48.596;9.238;2022-10-31T11:22:38;98476.50;;;16.35;78.90
21824;BME280;11074;48.596;9.238;2022-10-31T11:27:59;98463.41;;;16.58;78.78
21824;BME280;11074;48.596;9.238;2022-10-31T11:30:25;98459.56;;;16.64;77.99
21824;BME280;11074;48.596;9.238;2022-10-31T11:32:51;98471.63;;;16.76;78.76
21824;BME280;11074;48.596;9.238;2022-10-31T11:35:20;98462.03;;;16.89;79.16
21824;BME280;11074;48.596;9.238;2022-10-31T11:37:51;98453.59;;;16.95;77.80
21824;BME280;11074;48.596;9.238;2022-10-31T11:40:24;98442.97;;;17.04;76.89
21824;BME280;11074;48.596;9.238;2022-10-31T11:42:53;98438.06;;;17.06;76.67
21824;BME280;11074;48.596;9.238;2022-10-31T11:47:53;98440.50;;;17.08;76.10
21824;BME280;11074;48.596;9.238;2022-10-31T11:50:40;98436.13;;;17.12;75.59
21824;BME280;11074;48.596;9.238;2022-10-31T11:53:36;98432.59;;;17.16;74.49
21824;BME280;11074;48.596;9.238;2022-10-31T11:56:14;98427.69;;;17.18;74.18
21824;BME280;11074;48.596;9.238;2022-10-31T11:58:41;98420.91;;;17.21;73.72
21824;BME280;11074;48.596;9.238;2022-10-31T12:01:30;98415.75;;;17.19;73.81
21824;BME280;11074;48.596;9.238;2022-10-31T12:04:10;98429.50;;;17.23;73.60
21824;BME280;11074;48.596;9.238;2022-10-31T12:06:43;98415.94;;;17.28;73.26
21824;BME280;11074;48.596;9.238;2022-10-31T12:09:30;98405.13;;;17.28;72.97
21824;BME280;11074;48.596;9.238;2022-10-31T12:15:21;98410.06;;;17.44;74.14
21824;BME280;11074;48.596;9.238;2022-10-31T12:18:42;98411.63;;;17.50;73.63
21824;BME280;11074;48.596;9.238;2022-10-31T12:21:50;98398.09;;;17.50;73.21
21824;BME280;11074;48.596;9.238;2022-10-31T12:36:55;98377.94;;;17.43;73.08
21824;BME280;11074;48.596;9.238;2022-10-31T12:42:41;98366.06;;;17.39;74.23
21824;BME280;11074;48.596;9.238;2022-10-31T12:54:04;98353.72;;;17.33;76.68
21824;BME280;11074;48.596;9.238;2022-10-31T12:59:53;98340.00;;;17.29;76.33
21824;BME280;11074;48.596;9.238;2022-10-31T13:02:28;98340.78;;;17.30;76.32
21824;BME280;11074;48.596;9.238;2022-10-31T13:05:15;98334.88;;;17.28;77.20
21824;BME280;11074;48.596;9.238;2022-10-31T13:10:25;98342.63;;;17.34;77.03
21824;BME280;11074;48.596;9.238;2022-10-31T13:13:00;98323.41;;;17.36;77.73
21824;BME280;11074;48.596;9.238;2022-10-31T13:15:34;98329.03;;;17.39;76.38
21824;BME280;11074;48.596;9.238;2022-10-31T13:18:25;98318.47;;;17.43;76.37
21824;BME280;11074;48.596;9.238;2022-10-31T13:20:54;98322.16;;;17.47;75.38
21824;BME280;11074;48.596;9.238;2022-10-31T13:23:32;98317.50;;;17.52;75.17
21824;BME280;11074;48.596;9.238;2022-10-31T13:26:15;98318.75;;;17.60;76.85
21824;BME280;11074;48.596;9.238;2022-10-31T13:28:48;98316.28;;;17.64;75.48
21824;BME280;11074;48.596;9.238;2022-10-31T13:31:16;98313.72;;;17.72;75.23
21824;BME280;11074;48.596;9.238;2022-10-31T13:33:49;98315.81;;;17.75;74.43
21824;BME280;11074;48.596;9.238;2022-10-31T13:36:40;98301.94;;;17.82;73.55
21824;BME280;11074;48.596;9.238;2022-10-31T13:39:42;98289.63;;;17.89;73.57
21824;BME280;11074;48.596;9.238;2022-10-31T13:42:30;98285.34;;;18.02;73.11
21824;BME280;11074;48.596;9.238;2022-10-31T13:45:24;98283.28;;;18.12;72.85
21824;BME280;11074;48.596;9.238;2022-10-31T13:51:06;98284.31;;;18.30;71.99
21824;BME280;11074;48.596;9.238;2022-10-31T13:53:57;98279.09;;;18.20;72.22
21824;BME280;11074;48.596;9.238;2022-10-31T13:56:34;98267.38;;;18.25;75.16
21824;BME280;11074;48.596;9.238;2022-10-31T13:59:23;98260.44;;;18.32;76.44
21824;BME280;11074;48.596;9.238;2022-10-31T14:02:10;98268.25;;;18.34;73.17
21824;BME280;11074;48.596;9.238;2022-10-31T14:07:11;98266.19;;;18.31;73.07
21824;BME280;11074;48.596;9.238;2022-10-31T14:12:50;98261.53;;;19.13;70.33
21824;BME280;11074;48.596;9.238;2022-10-31T14:15:23;98254.56;;;19.56;67.57
21824;BME280;11074;48.596;9.238;2022-10-31T14:17:57;98252.50;;;20.28;69.17
21824;BME280;11074;48.596;9.238;2022-10-31T14:22:58;98256.31;;;20.67;65.76
21824;BME280;11074;48.596;9.238;2022-10-31T14:25:33;98243.03;;;20.57;66.30
21824;BME280;11074;48.596;9.238;2022-10-31T14:28:05;98242.06;;;20.22;65.19
21824;BME280;11074;48.596;9.238;2022-10-31T14:30:55;98245.34;;;20.10;66.13
21824;BME280;11074;48.596;9.238;2022-10-31T14:33:25;98247.72;;;20.03;67.97
21824;BME280;11074;48.596;9.238;2022-10-31T14:36:21;98237.63;;;19.73;68.32
21824;BME280;11074;48.596;9.238;2022-10-31T14:39:03;98239.50;;;19.64;70.69
21824;BME280;11074;48.596;9.238;2022-10-31T14:42:00;98245.28;;;19.13;70.04
21824;BME280;11074;48.596;9.238;2022-10-31T14:50:49;98243.25;;;17.82;77.02
21824;BME280;11074;48.596;9.238;2022-10-31T14:53:31;98237.34;;;18.07;77.94
21824;BME280;11074;48.596;9.238;2022-10-31T14:55:59;98234.75;;;18.02;77.19
21824;BME280;11074;48.596;9.238;2022-10-31T14:58:45;98230.22;;;17.84;78.01
21824;BME280;11074;48.596;9.238;2022-10-31T15:01:36;98239.63;;;17.87;78.08
21824;BME280;11074;48.596;9.238;2022-10-31T15:04:16;98231.41;;;17.78;78.80
21824;BME280;11074;48.596;9.238;2022-10-31T15:06:48;98225.69;;;17.80;79.65
21824;BME280;11074;48.596;9.238;2022-10-31T15:09:31;98235.09;;;17.50;81.57
21824;BME280;11074;48.596;9.238;2022-10-31T15:12:25;98236.66;;;17.19;82.54
21824;BME280;11074;48.596;9.238;2022-10-31T15:14:51;98230.59;;;17.27;83.38
21824;BME280;11074;48.596;9.238;2022-10-31T15:17:19;98226.63;;;17.38;84.12
21824;BME280;11074;48.596;9.238;2022-10-31T15:19:46;98219.25;;;17.25;84.06
21824;BME280;11074;48.596;9.238;2022-10-31T15:22:18;98228.81;;;17.36;83.98